Soaring Guidance
Issued by NWS Reno, NV

Home | Current Version | Previous Version | Text Only | Print | Product List | Glossary On
Versions: 1 2 3 4 5 6 7 8 9 10 11 12 13 14 15 16 17 18
000
UXUS97 KREV 041346
SRGREV

SOARING FORECAST
NATIONAL WEATHER SERVICE - RENO NV
700 AM PDT FRI SEP 4 2015

THIS SOARING FORECAST IS FOR THE EASTERN SIERRA AND WESTERN NEVADA
WITH SPECIFIC INDICES FOR THE GREATER RENO AREA.

THIS FORECAST IS PREPARED DAILY BY 700 AM AND IS NOT UPDATED.

FOR CURRENT FLIGHT CONDITIONS...FORECASTS...AND ADVISORIES...ACCESS
YOUR LOCAL BRIEFING OUTLET OR FLIGHT SERVICE STATION.

*******************************************************************
FORECASTED LOCAL INDICES FOR RENO:        TODAY     YESTERDAY
FORECASTED MAX TEMP AT RENO (DEG F).....     75          80
FORECASTED TRIGGER TEMPERATURE (DEG F)..     62          70
   EXCEEDED YESTERDAY BY 955 AM PDT
FORECASTED MAXIMUM ALTITUDE (FT MSL)....  13900       13700
FORECASTED SOARING INDEX (FPM)..........    717         741
FORECASTED K-INDEX.........VALID 18Z....      8           7
FORECASTED K-INDEX.........VALID 00Z....     15          18
FORECASTED LIFTED INDEX....VALID 18Z....      7          10
FORECASTED LIFTED INDEX....VALID 00Z....      6           6

AFTERNOON WINDS ALOFT FORECAST
MSL (FT) WIND/TEMP
9000  2422/+05
10000 2425/+02
12000 2430/-02
14000 2433/-05
16000 2437/-08
18000 2449/-12
24000 2454/-26
30000 2665/-40
34000 2566/-50
39000 2356/-53

SLIDE MOUNTAIN DATA:
     DATE       TIME     TEMP  DEWPT   RH         WIND (MPH)
                        (F)   (F)           | DIR  SPEED GUST
2015-09-03    20:00      40    27     65    | 252   33   44
2015-09-03    19:50      40    27     64    | 255   29   38
2015-09-03    19:30      41    28     64    | 255   26   37
2015-09-03    19:20      42    29     65    | 261   23   33

RENO TAF FORECAST:
KRNO 041120Z 0412/0512 VRB04KT P6SM SKC
     FM041700 21009G18KT P6SM FEW200
     FM042000 24024G36KT P6SM SCT200
     FM050000 27017G27KT P6SM SCT200
     FM050400 29010KT P6SM SKC

CARSON CITY TAF FORECAST:
KCXP 041120Z 0412/0512 VRB03KT P6SM SKC
     FM041700 20010G20KT P6SM FEW200
     FM042000 25019G30KT P6SM SCT200
     FM050100 26012G20KT P6SM SCT200
     FM050500 27009KT P6SM SKC

OUTLOOK FOR THE RENO-CARSON CITY-MINDEN AREA:
.SATURDAY...MOSTLY CLOUDY WITH A SLIGHT CHANCE OF SHOWERS IN THE
MORNING...THEN PARTLY CLOUDY IN THE AFTERNOON. HIGHS 67 TO 72.
WEST WINDS 10 TO 15 MPH.

SUNRISE AND SUNSET
SEPTEMBER  4 2015.....SUNRISE   630 AM PDT   SUNSET   726 PM PDT
SEPTEMBER  5 2015.....SUNRISE   631 AM PDT   SUNSET   724 PM PDT



USA.gov is the U.S. government's official web portal to all federal, state and local government web resources and services.